createdAt,value
2017-12-20T00:00:39.905Z,17.07
2017-12-20T00:03:07.377Z,17.50
2017-12-20T00:05:36.351Z,18.37
2017-12-20T00:08:03.841Z,17.80
2017-12-20T00:10:31.314Z,18.43
2017-12-20T00:12:58.729Z,17.87
2017-12-20T00:15:26.162Z,19.10
2017-12-20T00:17:53.562Z,18.53
2017-12-20T00:20:20.982Z,18.83
2017-12-20T00:22:49.146Z,19.83
2017-12-20T00:25:16.699Z,18.83
2017-12-20T00:27:44.214Z,19.00
2017-12-20T00:30:11.641Z,18.30
2017-12-20T00:32:39.186Z,18.00
2017-12-20T00:35:06.586Z,18.07
2017-12-20T00:37:34.011Z,17.33
2017-12-20T00:40:01.470Z,17.03
2017-12-20T00:42:28.945Z,16.77
2017-12-20T00:44:56.358Z,15.90
2017-12-20T00:47:23.865Z,16.30
2017-12-20T00:49:51.349Z,15.13
2017-12-20T00:52:18.799Z,15.20
2017-12-20T00:54:46.231Z,15.30
2017-12-20T00:57:13.652Z,15.37
2017-12-20T00:59:41.122Z,16.13
2017-12-20T01:02:08.581Z,15.00
2017-12-20T01:04:36.055Z,16.60
2017-12-20T01:07:03.470Z,15.13
2017-12-20T01:09:30.879Z,14.83
2017-12-20T01:11:58.309Z,15.90
2017-12-20T01:14:25.721Z,15.30
2017-12-20T01:16:53.129Z,19.57
2017-12-20T01:19:20.554Z,21.20
2017-12-20T01:21:47.965Z,21.60
2017-12-20T01:24:15.369Z,22.53
2017-12-20T01:26:43.582Z,23.50
2017-12-20T01:29:10.999Z,23.50
2017-12-20T01:31:38.402Z,23.57
2017-12-20T01:34:05.813Z,23.77
2017-12-20T01:36:33.358Z,25.03
2017-12-20T01:39:01.506Z,23.80
2017-12-20T01:41:29.718Z,23.13
2017-12-20T01:43:57.118Z,23.30
2017-12-20T01:46:24.551Z,23.67
2017-12-20T01:48:51.966Z,22.83
2017-12-20T01:51:19.378Z,24.17
2017-12-20T01:53:47.590Z,23.23
2017-12-20T01:56:15.058Z,21.90
2017-12-20T01:58:42.632Z,22.83
2017-12-20T02:01:10.117Z,22.73
2017-12-20T02:03:37.502Z,21.53
2017-12-20T02:06:05.026Z,22.93
2017-12-20T02:08:33.314Z,22.30
2017-12-20T02:11:00.788Z,23.50
2017-12-20T02:13:28.218Z,23.90
2017-12-20T02:15:56.398Z,22.10
2017-12-20T02:18:23.921Z,23.53
2017-12-20T02:20:51.326Z,23.20
2017-12-20T02:23:18.847Z,23.13
2017-12-20T02:25:46.323Z,22.93
2017-12-20T02:28:13.790Z,23.80
2017-12-20T02:30:41.249Z,22.37
2017-12-20T02:33:20.653Z,22.90
2017-12-20T02:35:48.057Z,22.77
2017-12-20T02:38:21.373Z,22.07
2017-12-20T02:40:48.850Z,22.75
2017-12-20T02:43:16.260Z,23.17
2017-12-20T02:45:43.794Z,22.37
2017-12-20T02:48:11.262Z,22.42
2017-12-20T02:50:38.661Z,21.73
2017-12-20T02:53:06.069Z,22.93
2017-12-20T02:55:33.507Z,21.20
2017-12-20T02:58:01.026Z,19.62
2017-12-20T03:00:28.438Z,22.23
2017-12-20T03:02:55.973Z,21.45
2017-12-20T03:05:23.442Z,23.17
2017-12-20T03:07:50.889Z,23.08
2017-12-20T03:10:19.070Z,23.25
2017-12-20T03:12:47.282Z,22.83
2017-12-20T03:15:15.461Z,21.70
2017-12-20T03:17:42.930Z,22.00
2017-12-20T03:20:10.342Z,22.40
2017-12-20T03:22:37.767Z,19.58
2017-12-20T03:25:05.178Z,21.13
2017-12-20T03:27:34.134Z,20.93
2017-12-20T03:30:01.558Z,21.30
2017-12-20T03:32:29.081Z,19.33
2017-12-20T03:34:56.484Z,20.73
2017-12-20T03:37:24.013Z,19.95
2017-12-20T03:39:51.422Z,21.43
2017-12-20T03:42:18.876Z,20.48
2017-12-20T03:44:46.328Z,20.57
2017-12-20T03:47:13.790Z,19.70
2017-12-20T03:49:41.261Z,19.10
2017-12-20T03:52:08.666Z,18.00
2017-12-20T03:54:36.078Z,19.03
2017-12-20T03:57:03.501Z,19.93
2017-12-20T03:59:30.902Z,18.63
2017-12-20T04:01:59.115Z,19.63
2017-12-20T04:04:26.518Z,20.00
2017-12-20T04:06:53.931Z,19.60
2017-12-20T04:09:22.145Z,19.80
2017-12-20T04:11:49.600Z,17.67
2017-12-20T04:14:17.008Z,19.80
2017-12-20T04:16:44.434Z,19.07
2017-12-20T04:19:11.915Z,18.73
2017-12-20T04:21:39.383Z,22.00
2017-12-20T04:24:06.787Z,20.20
2017-12-20T04:26:34.207Z,18.50
2017-12-20T04:29:01.687Z,17.70
2017-12-20T04:31:29.096Z,18.03
2017-12-20T04:33:56.533Z,17.27
2017-12-20T04:36:23.950Z,17.13
2017-12-20T04:38:52.171Z,17.80
2017-12-20T04:41:19.609Z,17.70
2017-12-20T04:43:47.787Z,16.47
2017-12-20T04:46:17.180Z,15.60
2017-12-20T04:48:44.599Z,15.57
2017-12-20T04:51:12.794Z,16.27
2017-12-20T04:53:40.210Z,16.43
2017-12-20T04:56:07.636Z,15.50
2017-12-20T04:58:35.045Z,15.00
2017-12-20T05:01:02.450Z,15.07
2017-12-20T05:03:30.626Z,14.53
2017-12-20T05:05:58.798Z,14.53
2017-12-20T05:08:26.222Z,13.77
2017-12-20T05:10:53.631Z,13.63
2017-12-20T05:13:21.138Z,13.63
2017-12-20T05:15:48.618Z,12.80
2017-12-20T05:18:16.804Z,13.60
2017-12-20T05:20:44.978Z,13.13
2017-12-20T05:23:12.394Z,12.27
2017-12-20T05:25:39.817Z,13.00
2017-12-20T05:28:07.283Z,13.37
2017-12-20T05:30:34.686Z,12.03
2017-12-20T05:33:02.120Z,12.60
2017-12-20T05:35:29.518Z,12.97
2017-12-20T05:37:56.954Z,11.63
2017-12-20T05:40:24.362Z,12.20
2017-12-20T05:42:51.773Z,12.43
2017-12-20T05:45:19.943Z,12.70
2017-12-20T05:47:47.368Z,12.03
2017-12-20T05:50:15.735Z,12.15
2017-12-20T05:52:43.202Z,12.23
2017-12-20T05:55:10.614Z,11.60
2017-12-20T05:57:38.157Z,12.48
2017-12-20T06:00:05.579Z,12.87
2017-12-20T06:02:33.794Z,11.70
2017-12-20T06:05:01.262Z,11.43
2017-12-20T06:07:28.745Z,11.23
2017-12-20T06:09:56.898Z,10.13
2017-12-20T06:12:25.109Z,9.73
2017-12-20T06:14:52.507Z,9.23
2017-12-20T06:17:19.938Z,9.63
2017-12-20T06:19:47.410Z,9.20
2017-12-20T06:22:14.824Z,8.47
2017-12-20T06:24:42.251Z,8.40
2017-12-20T06:27:09.706Z,7.22
2017-12-20T06:29:37.194Z,6.40
2017-12-20T06:32:05.341Z,7.60
2017-12-20T06:34:33.510Z,8.20
2017-12-20T06:37:00.934Z,7.83
2017-12-20T06:39:28.394Z,7.47
2017-12-20T06:41:55.798Z,8.60
2017-12-20T06:44:23.206Z,8.73
2017-12-20T06:46:51.410Z,9.67
2017-12-20T06:49:18.886Z,10.50
2017-12-20T06:51:46.362Z,9.83
2017-12-20T06:54:13.829Z,10.57
2017-12-20T06:56:41.264Z,10.73
2017-12-20T06:59:08.665Z,11.00
2017-12-20T07:01:36.073Z,10.77
2017-12-20T07:04:03.590Z,10.03
2017-12-20T07:06:31.017Z,10.70
2017-12-20T07:08:58.422Z,11.00
2017-12-20T07:11:26.664Z,11.70
2017-12-20T07:13:54.026Z,10.83
2017-12-20T07:16:21.442Z,11.10
2017-12-20T07:18:49.637Z,11.77
2017-12-20T07:21:17.114Z,12.43
2017-12-20T07:23:44.578Z,12.80
2017-12-20T07:26:12.011Z,11.27
2017-12-20T07:28:39.521Z,11.53
2017-12-20T07:31:06.995Z,12.00
2017-12-20T07:33:35.165Z,12.50
2017-12-20T07:36:02.653Z,13.03
2017-12-20T07:38:30.805Z,13.80
2017-12-20T07:40:58.755Z,16.30
2017-12-20T07:43:26.166Z,17.57
2017-12-20T07:45:53.646Z,15.75
2017-12-20T07:48:21.050Z,14.87
2017-12-20T07:50:48.510Z,19.17
2017-12-20T07:53:15.962Z,16.60
2017-12-20T07:55:43.377Z,16.40
2017-12-20T07:58:10.785Z,14.80
2017-12-20T08:00:38.249Z,13.93
2017-12-20T08:03:05.671Z,13.90
2017-12-20T08:05:33.079Z,13.83
2017-12-20T08:08:01.250Z,14.40
2017-12-20T08:10:29.422Z,13.77
2017-12-20T08:12:56.941Z,14.27
2017-12-20T08:15:24.326Z,13.10
2017-12-20T08:17:51.774Z,12.90
2017-12-20T08:20:19.921Z,13.73
2017-12-20T08:22:47.327Z,14.47
2017-12-20T08:25:15.718Z,15.07
2017-12-20T08:27:43.899Z,13.83
2017-12-20T08:30:11.374Z,13.77
2017-12-20T08:32:38.867Z,14.20
2017-12-20T08:35:06.245Z,13.90
2017-12-20T08:37:33.650Z,14.40
2017-12-20T08:40:01.863Z,14.30
2017-12-20T08:42:29.287Z,13.80
2017-12-20T08:44:56.682Z,13.23
2017-12-20T08:47:24.218Z,13.30
2017-12-20T08:49:51.629Z,13.60
2017-12-20T08:52:19.054Z,14.57
2017-12-20T08:54:46.462Z,13.47
2017-12-20T08:57:13.872Z,12.20
2017-12-20T08:59:41.406Z,14.10
2017-12-20T09:02:08.814Z,13.10
2017-12-20T09:04:36.220Z,12.80
2017-12-20T09:07:04.390Z,11.00
2017-12-20T09:09:32.571Z,11.77
2017-12-20T09:11:59.999Z,12.60
2017-12-20T09:14:27.385Z,12.70
2017-12-20T09:16:54.820Z,11.13
2017-12-20T09:19:22.289Z,11.80
2017-12-20T09:21:50.575Z,10.83
2017-12-20T09:24:18.045Z,10.80
2017-12-20T09:26:46.222Z,11.50
2017-12-20T09:29:13.702Z,9.70
2017-12-20T09:31:41.880Z,11.33
2017-12-20T09:34:09.298Z,10.50
2017-12-20T09:36:36.712Z,11.23
2017-12-20T09:39:04.129Z,11.18
2017-12-20T09:41:31.550Z,11.90
2017-12-20T09:43:58.965Z,11.60
2017-12-20T09:46:26.375Z,12.07
2017-12-20T09:48:54.577Z,12.23
2017-12-20T09:51:22.052Z,11.10
2017-12-20T09:53:49.624Z,10.93
2017-12-20T09:56:17.908Z,10.90
2017-12-20T09:58:46.087Z,11.10
2017-12-20T10:01:13.566Z,10.83
2017-12-20T10:03:41.738Z,9.90
2017-12-20T10:06:09.151Z,9.77
2017-12-20T10:08:36.574Z,9.53
2017-12-20T10:11:03.993Z,8.80
2017-12-20T10:13:31.442Z,9.00
2017-12-20T10:15:58.893Z,9.40
2017-12-20T10:18:26.304Z,9.93
2017-12-20T10:20:53.927Z,9.30
2017-12-20T10:23:21.400Z,9.90
2017-12-20T10:25:49.541Z,8.50
2017-12-20T10:28:17.712Z,8.60
2017-12-20T10:30:45.127Z,9.83
2017-12-20T10:33:12.604Z,8.30
2017-12-20T10:35:40.799Z,8.70
2017-12-20T10:38:08.258Z,8.83
2017-12-20T10:40:36.409Z,8.17
2017-12-20T10:43:04.628Z,8.53
2017-12-20T10:45:32.110Z,8.63
2017-12-20T10:47:59.563Z,8.60
2017-12-20T10:50:26.957Z,8.30
2017-12-20T10:52:54.370Z,8.40
2017-12-20T10:55:22.537Z,7.47
2017-12-20T10:57:50.059Z,8.00
2017-12-20T11:00:17.521Z,6.83
2017-12-20T11:02:44.930Z,6.97
2017-12-20T11:05:12.350Z,7.70
2017-12-20T11:07:40.027Z,7.70
2017-12-20T11:10:08.209Z,6.87
2017-12-20T11:12:35.609Z,6.60
2017-12-20T11:15:03.024Z,6.43
2017-12-20T11:17:31.234Z,7.50
2017-12-20T11:19:58.654Z,8.03
2017-12-20T11:22:26.070Z,7.53
2017-12-20T11:24:53.487Z,7.20
2017-12-20T11:27:20.911Z,7.30
2017-12-20T11:29:48.373Z,6.70
2017-12-20T11:32:15.773Z,7.73
2017-12-20T11:34:43.192Z,7.37
2017-12-20T11:37:11.370Z,6.87
2017-12-20T11:39:39.696Z,7.00
2017-12-20T11:42:07.098Z,6.93
2017-12-20T11:44:34.522Z,6.97
2017-12-20T11:47:01.927Z,6.73
2017-12-20T11:49:29.325Z,6.00
2017-12-20T11:51:57.550Z,5.67
2017-12-20T11:54:25.717Z,5.50
2017-12-20T11:56:53.208Z,4.93
2017-12-20T11:59:21.358Z,5.33
2017-12-20T12:01:49.529Z,5.53
2017-12-20T12:04:17.034Z,5.37
2017-12-20T12:06:44.438Z,5.53
2017-12-20T12:09:11.874Z,5.10
2017-12-20T12:11:39.289Z,4.93
2017-12-20T12:14:06.689Z,4.93
2017-12-20T12:16:35.006Z,5.50
2017-12-20T12:19:03.182Z,5.17
2017-12-20T12:21:30.663Z,5.70
2017-12-20T12:23:58.815Z,5.63
2017-12-20T12:26:26.978Z,7.00
2017-12-20T12:28:54.399Z,6.43
2017-12-20T12:31:21.868Z,7.50
2017-12-20T12:33:50.010Z,8.20
2017-12-20T12:36:17.418Z,8.47
2017-12-20T12:38:44.890Z,8.17
2017-12-20T12:41:13.045Z,9.23
2017-12-20T12:43:40.449Z,9.73
2017-12-20T12:46:07.858Z,10.23
2017-12-20T12:48:36.029Z,9.50
2017-12-20T12:51:03.445Z,9.90
2017-12-20T12:53:30.866Z,8.70
2017-12-20T12:55:58.402Z,9.37
2017-12-20T12:58:25.854Z,7.93
2017-12-20T13:00:53.265Z,8.53
2017-12-20T13:03:20.674Z,7.40
2017-12-20T13:05:48.882Z,7.60
2017-12-20T13:08:16.390Z,6.50
2017-12-20T13:10:43.817Z,6.70
2017-12-20T13:13:11.305Z,7.00
2017-12-20T13:15:38.764Z,7.30
2017-12-20T13:18:06.172Z,7.70
2017-12-20T13:20:33.604Z,7.83
2017-12-20T13:23:01.737Z,7.30
2017-12-20T13:25:29.245Z,8.07
2017-12-20T13:27:56.731Z,7.40
2017-12-20T13:30:24.121Z,7.63
2017-12-20T13:32:51.594Z,7.97
2017-12-20T13:35:19.067Z,7.80
2017-12-20T13:37:46.504Z,8.03
2017-12-20T13:40:13.933Z,8.60
2017-12-20T13:42:41.326Z,7.23
2017-12-20T13:45:08.805Z,7.33
2017-12-20T13:47:36.266Z,7.53
2017-12-20T13:50:03.730Z,7.33
2017-12-20T13:52:31.206Z,7.97
2017-12-20T13:54:58.613Z,9.07
2017-12-20T13:57:26.041Z,8.17
2017-12-20T13:59:53.445Z,8.83
2017-12-20T14:02:20.869Z,8.60
2017-12-20T14:04:48.282Z,9.80
2017-12-20T14:07:15.713Z,9.67
2017-12-20T14:09:43.203Z,9.23
2017-12-20T14:12:10.649Z,9.67
2017-12-20T14:14:38.116Z,11.67
2017-12-20T14:17:05.586Z,10.97
2017-12-20T14:19:33.002Z,11.47
2017-12-20T14:22:00.406Z,11.27
2017-12-20T14:24:28.598Z,11.40
2017-12-20T14:26:56.009Z,11.30
2017-12-20T14:29:23.453Z,11.60
2017-12-20T14:31:50.863Z,11.50
2017-12-20T14:34:19.814Z,10.90
2017-12-20T14:36:47.228Z,10.70
2017-12-20T14:39:14.664Z,10.50
2017-12-20T14:41:42.055Z,10.93
2017-12-20T14:44:09.458Z,11.40
2017-12-20T14:46:37.633Z,12.23
2017-12-20T14:49:05.190Z,11.00
2017-12-20T14:51:32.623Z,11.40
2017-12-20T14:54:00.015Z,11.70
2017-12-20T14:56:27.437Z,12.30
2017-12-20T14:58:54.922Z,11.13
2017-12-20T15:01:22.391Z,12.33
2017-12-20T15:03:49.857Z,12.50
2017-12-20T15:06:17.272Z,12.90
2017-12-20T15:08:44.670Z,12.77
2017-12-20T15:11:12.886Z,12.30
2017-12-20T15:13:40.356Z,11.87
2017-12-20T15:16:08.646Z,11.30
2017-12-20T15:18:36.793Z,11.27
2017-12-20T15:21:04.966Z,11.43
2017-12-20T15:23:32.366Z,9.50
2017-12-20T15:25:59.782Z,10.03
2017-12-20T15:28:27.215Z,10.67
2017-12-20T15:30:55.365Z,9.60
2017-12-20T15:33:23.589Z,9.70
2017-12-20T15:35:51.042Z,8.70
2017-12-20T15:38:18.450Z,9.90
2017-12-20T15:40:45.861Z,10.07
2017-12-20T15:43:14.078Z,10.80
2017-12-20T15:45:41.489Z,10.50
2017-12-20T15:48:09.005Z,10.50
2017-12-20T15:50:36.503Z,10.70
2017-12-20T15:53:03.885Z,10.27
2017-12-20T15:55:31.310Z,11.10
2017-12-20T15:57:58.722Z,11.60
2017-12-20T16:00:26.132Z,11.30
2017-12-20T16:02:54.339Z,11.70
2017-12-20T16:05:21.807Z,12.40
2017-12-20T16:07:49.271Z,11.80
2017-12-20T16:10:16.738Z,14.13
2017-12-20T16:12:44.157Z,11.40
2017-12-20T16:15:11.578Z,12.83
2017-12-20T16:17:39.042Z,11.60
2017-12-20T16:20:06.478Z,11.27
2017-12-20T16:22:33.891Z,10.97
2017-12-20T16:25:01.350Z,11.30
2017-12-20T16:27:28.828Z,12.27
2017-12-20T16:29:56.985Z,12.00
2017-12-20T16:32:25.188Z,11.50
2017-12-20T16:34:52.609Z,11.20
2017-12-20T16:37:20.020Z,10.97
2017-12-20T16:39:47.504Z,10.43
2017-12-20T16:42:15.654Z,11.33
2017-12-20T16:44:43.057Z,11.07
2017-12-20T16:47:10.513Z,10.20
2017-12-20T16:49:38.002Z,10.83
2017-12-20T16:52:05.424Z,10.90
2017-12-20T16:54:32.842Z,10.37
2017-12-20T16:57:00.250Z,10.00
2017-12-20T16:59:27.664Z,10.90
2017-12-20T17:01:55.871Z,10.50
2017-12-20T17:04:24.062Z,10.33
2017-12-20T17:06:51.481Z,10.80
2017-12-20T17:09:18.991Z,10.30
2017-12-20T17:11:46.465Z,10.50
2017-12-20T17:14:14.619Z,9.40
2017-12-20T17:16:42.818Z,9.30
2017-12-20T17:19:10.237Z,9.10
2017-12-20T17:21:37.670Z,9.30
2017-12-20T17:24:05.147Z,9.70
2017-12-20T17:26:32.534Z,9.70
2017-12-20T17:28:59.958Z,10.30
2017-12-20T17:31:27.467Z,9.90
2017-12-20T17:33:54.898Z,9.60
2017-12-20T17:36:22.378Z,9.30
2017-12-20T17:38:49.789Z,9.30
2017-12-20T17:41:17.194Z,9.60
2017-12-20T17:43:45.398Z,9.77
2017-12-20T17:46:12.822Z,10.03
2017-12-20T17:48:40.237Z,8.70
2017-12-20T17:51:07.709Z,8.20
2017-12-20T17:53:35.167Z,8.53
2017-12-20T17:56:02.574Z,8.17
2017-12-20T17:58:30.007Z,8.40
2017-12-20T18:00:57.419Z,8.57
2017-12-20T18:03:24.837Z,8.20
2017-12-20T18:05:52.381Z,8.60
2017-12-20T18:08:19.733Z,8.23
2017-12-20T18:10:47.148Z,8.53
2017-12-20T18:13:14.625Z,9.27
2017-12-20T18:15:42.778Z,9.40
2017-12-20T18:18:10.954Z,8.90
2017-12-20T18:20:39.133Z,8.97
2017-12-20T18:23:06.542Z,8.23
2017-12-20T18:25:33.953Z,8.77
2017-12-20T18:28:01.391Z,8.50
2017-12-20T18:30:28.786Z,8.50
2017-12-20T18:32:56.207Z,8.90
2017-12-20T18:35:23.601Z,8.40
2017-12-20T18:37:51.016Z,8.17
2017-12-20T18:40:19.199Z,8.30
2017-12-20T18:42:46.812Z,8.33
2017-12-20T18:45:14.965Z,8.63
2017-12-20T18:47:42.366Z,7.53
2017-12-20T18:50:09.774Z,8.10
2017-12-20T18:52:37.207Z,7.60
2017-12-20T18:55:04.606Z,8.50
2017-12-20T18:57:32.031Z,8.10
2017-12-20T18:59:59.493Z,8.03
2017-12-20T19:02:27.075Z,7.83
2017-12-20T19:04:55.251Z,7.50
2017-12-20T19:07:22.666Z,7.83
2017-12-20T19:09:50.086Z,7.80
2017-12-20T19:12:17.489Z,8.50
2017-12-20T19:14:44.906Z,8.60
2017-12-20T19:17:13.222Z,8.60
2017-12-20T19:19:40.634Z,8.57
2017-12-20T19:22:08.054Z,9.13
2017-12-20T19:24:35.446Z,8.73
2017-12-20T19:27:02.863Z,8.63
2017-12-20T19:29:31.030Z,9.07
2017-12-20T19:31:58.455Z,9.70
2017-12-20T19:34:25.858Z,9.50
2017-12-20T19:36:53.282Z,9.37
2017-12-20T19:39:20.678Z,10.13
2017-12-20T19:41:48.098Z,9.80
2017-12-20T19:44:16.278Z,10.20
2017-12-20T19:46:44.454Z,9.60
2017-12-20T19:49:12.628Z,9.60
2017-12-20T19:51:40.059Z,9.30
2017-12-20T19:54:07.462Z,10.83
2017-12-20T19:56:34.871Z,10.67
2017-12-20T19:59:02.279Z,10.60
2017-12-20T20:01:29.687Z,10.40
2017-12-20T20:03:57.890Z,11.17
2017-12-20T20:06:25.357Z,12.40
2017-12-20T20:08:52.776Z,11.70
2017-12-20T20:11:20.304Z,11.40
2017-12-20T20:13:48.599Z,12.10
2017-12-20T20:16:16.069Z,12.40
2017-12-20T20:18:43.475Z,12.37
2017-12-20T20:21:10.894Z,11.80
2017-12-20T20:23:38.368Z,12.90
2017-12-20T20:26:06.557Z,12.60
2017-12-20T20:28:33.966Z,14.27
2017-12-20T20:31:01.369Z,14.50
2017-12-20T20:33:28.846Z,13.47
2017-12-20T20:35:56.253Z,15.20
2017-12-20T20:38:23.666Z,15.13
2017-12-20T20:40:51.851Z,15.20
2017-12-20T20:43:20.027Z,16.93
2017-12-20T20:45:48.250Z,17.10
2017-12-20T20:48:15.654Z,15.93
2017-12-20T20:50:43.078Z,17.10
2017-12-20T20:53:10.490Z,17.73
2017-12-20T20:55:37.914Z,17.20
2017-12-20T20:58:05.328Z,19.57
2017-12-20T21:00:32.730Z,19.00
2017-12-20T21:03:00.928Z,18.20
2017-12-20T21:05:28.334Z,19.20
2017-12-20T21:07:55.753Z,19.40
2017-12-20T21:10:23.943Z,19.53
2017-12-20T21:12:52.126Z,19.97
2017-12-20T21:15:20.343Z,21.53
2017-12-20T21:17:47.742Z,20.43
2017-12-20T21:20:15.162Z,20.97
2017-12-20T21:22:42.639Z,20.90
2017-12-20T21:25:10.097Z,20.60
2017-12-20T21:27:37.507Z,21.57
2017-12-20T21:30:04.910Z,20.50
2017-12-20T21:32:33.120Z,19.80
2017-12-20T21:35:01.302Z,21.37
2017-12-20T21:37:28.713Z,20.17
2017-12-20T21:39:56.122Z,20.97
2017-12-20T21:42:24.297Z,20.87
2017-12-20T21:44:52.514Z,19.63
2017-12-20T21:47:19.998Z,20.50
2017-12-20T21:49:47.407Z,20.90
2017-12-20T21:52:14.817Z,20.63
2017-12-20T21:54:42.290Z,21.50
2017-12-20T21:57:09.702Z,20.43
2017-12-20T21:59:37.124Z,19.33
2017-12-20T22:02:04.535Z,20.43
2017-12-20T22:04:31.968Z,19.27
2017-12-20T22:06:59.430Z,19.70
2017-12-20T22:09:26.846Z,18.60
2017-12-20T22:11:54.258Z,18.83
2017-12-20T22:14:21.730Z,19.33
2017-12-20T22:16:49.180Z,17.93
2017-12-20T22:19:16.677Z,18.57
2017-12-20T22:21:44.149Z,18.07
2017-12-20T22:24:11.613Z,17.97
2017-12-20T22:26:39.105Z,18.10
2017-12-20T22:29:06.516Z,17.13
2017-12-20T22:31:34.028Z,15.70
2017-12-20T22:34:01.439Z,16.20
2017-12-20T22:36:28.845Z,15.47
2017-12-20T22:38:56.272Z,15.07
2017-12-20T22:41:23.684Z,14.90
2017-12-20T22:43:51.161Z,14.63
2017-12-20T22:46:18.639Z,14.13
2017-12-20T22:48:46.106Z,14.50
2017-12-20T22:51:13.526Z,13.77
2017-12-20T22:53:40.939Z,13.27
2017-12-20T22:56:08.404Z,13.90
2017-12-20T22:58:35.840Z,13.53
2017-12-20T23:01:04.037Z,13.60
2017-12-20T23:03:32.247Z,14.33
2017-12-20T23:05:59.750Z,13.43
2017-12-20T23:11:01.103Z,13.07
2017-12-20T23:13:28.518Z,13.10
2017-12-20T23:15:55.940Z,13.47
2017-12-20T23:18:23.418Z,12.53
2017-12-20T23:20:50.830Z,12.60
2017-12-20T23:23:18.344Z,13.67
2017-12-20T23:25:45.759Z,12.80
2017-12-20T23:28:13.170Z,13.00
2017-12-20T23:30:40.678Z,12.57
2017-12-20T23:33:08.094Z,13.50
2017-12-20T23:35:36.280Z,12.87
2017-12-20T23:38:04.466Z,13.83
2017-12-20T23:40:32.657Z,13.03
2017-12-20T23:43:00.860Z,14.00
2017-12-20T23:45:28.266Z,13.57
2017-12-20T23:47:55.696Z,13.87
2017-12-20T23:50:23.276Z,12.77
2017-12-20T23:52:51.441Z,14.07
2017-12-20T23:55:19.666Z,14.30
2017-12-20T23:57:47.219Z,14.97
